sensor_id;sensor_type;location;lat;lon;timestamp;P1;durP1;ratioP1;P2;durP2;ratioP2
56291;SDS011;54008;53.606;9.462;2022-08-21T00:02:24;7.03;;;3.88;;
56291;SDS011;54008;53.606;9.462;2022-08-21T00:04:52;6.63;;;3.70;;
56291;SDS011;54008;53.606;9.462;2022-08-21T00:07:18;7.85;;;4.10;;
56291;SDS011;54008;53.606;9.462;2022-08-21T00:09:44;11.82;;;3.92;;
56291;SDS011;54008;53.606;9.462;2022-08-21T00:12:10;8.38;;;3.78;;
56291;SDS011;54008;53.606;9.462;2022-08-21T00:14:36;7.50;;;3.50;;
56291;SDS011;54008;53.606;9.462;2022-08-21T00:17:02;8.15;;;3.63;;
56291;SDS011;54008;53.606;9.462;2022-08-21T00:19:28;6.30;;;3.38;;
56291;SDS011;54008;53.606;9.462;2022-08-21T00:21:53;6.72;;;3.58;;
56291;SDS011;54008;53.606;9.462;2022-08-21T00:24:20;6.72;;;4.03;;
56291;SDS011;54008;53.606;9.462;2022-08-21T00:26:46;7.03;;;3.63;;
56291;SDS011;54008;53.606;9.462;2022-08-21T00:29:12;6.15;;;3.92;;
56291;SDS011;54008;53.606;9.462;2022-08-21T00:31:38;8.70;;;4.50;;
56291;SDS011;54008;53.606;9.462;2022-08-21T00:34:03;8.85;;;3.92;;
56291;SDS011;54008;53.606;9.462;2022-08-21T00:36:29;7.05;;;3.90;;
56291;SDS011;54008;53.606;9.462;2022-08-21T00:38:55;5.80;;;3.97;;
56291;SDS011;54008;53.606;9.462;2022-08-21T00:41:21;7.53;;;4.35;;
56291;SDS011;54008;53.606;9.462;2022-08-21T00:43:48;10.85;;;4.07;;
56291;SDS011;54008;53.606;9.462;2022-08-21T00:46:14;11.25;;;4.78;;
56291;SDS011;54008;53.606;9.462;2022-08-21T00:48:40;6.82;;;3.85;;
56291;SDS011;54008;53.606;9.462;2022-08-21T00:51:17;6.68;;;3.80;;
56291;SDS011;54008;53.606;9.462;2022-08-21T00:53:48;9.40;;;3.63;;
56291;SDS011;54008;53.606;9.462;2022-08-21T00:56:16;9.95;;;3.63;;
56291;SDS011;54008;53.606;9.462;2022-08-21T00:58:42;7.53;;;3.78;;
56291;SDS011;54008;53.606;9.462;2022-08-21T01:01:08;7.78;;;3.80;;
56291;SDS011;54008;53.606;9.462;2022-08-21T01:03:35;5.38;;;3.90;;
56291;SDS011;54008;53.606;9.462;2022-08-21T01:06:01;5.38;;;3.75;;
56291;SDS011;54008;53.606;9.462;2022-08-21T01:08:29;9.63;;;3.90;;
56291;SDS011;54008;53.606;9.462;2022-08-21T01:10:55;7.03;;;3.50;;
56291;SDS011;54008;53.606;9.462;2022-08-21T01:13:21;9.63;;;3.83;;
56291;SDS011;54008;53.606;9.462;2022-08-21T01:15:49;12.02;;;4.47;;
56291;SDS011;54008;53.606;9.462;2022-08-21T01:18:17;9.93;;;3.92;;
56291;SDS011;54008;53.606;9.462;2022-08-21T01:23:32;8.57;;;4.03;;
56291;SDS011;54008;53.606;9.462;2022-08-21T01:25:59;7.53;;;3.45;;
56291;SDS011;54008;53.606;9.462;2022-08-21T01:28:24;6.97;;;4.22;;
56291;SDS011;54008;53.606;9.462;2022-08-21T01:30:51;5.55;;;3.58;;
56291;SDS011;54008;53.606;9.462;2022-08-21T01:33:19;7.60;;;3.90;;
56291;SDS011;54008;53.606;9.462;2022-08-21T01:35:49;6.72;;;4.00;;
56291;SDS011;54008;53.606;9.462;2022-08-21T01:38:14;8.63;;;4.30;;
56291;SDS011;54008;53.606;9.462;2022-08-21T01:40:39;5.93;;;4.05;;
56291;SDS011;54008;53.606;9.462;2022-08-21T01:43:05;6.78;;;4.05;;
56291;SDS011;54008;53.606;9.462;2022-08-21T01:45:30;9.15;;;4.28;;
56291;SDS011;54008;53.606;9.462;2022-08-21T01:47:56;7.00;;;4.30;;
56291;SDS011;54008;53.606;9.462;2022-08-21T01:50:21;4.63;;;4.10;;
56291;SDS011;54008;53.606;9.462;2022-08-21T01:52:47;7.00;;;4.68;;
56291;SDS011;54008;53.606;9.462;2022-08-21T01:55:13;11.48;;;5.88;;
56291;SDS011;54008;53.606;9.462;2022-08-21T01:57:39;8.57;;;4.88;;
56291;SDS011;54008;53.606;9.462;2022-08-21T02:00:08;8.20;;;5.03;;
56291;SDS011;54008;53.606;9.462;2022-08-21T02:02:36;10.15;;;5.00;;
56291;SDS011;54008;53.606;9.462;2022-08-21T02:05:02;12.40;;;4.50;;
56291;SDS011;54008;53.606;9.462;2022-08-21T02:07:35;7.65;;;4.70;;
56291;SDS011;54008;53.606;9.462;2022-08-21T02:10:02;8.52;;;5.07;;
56291;SDS011;54008;53.606;9.462;2022-08-21T02:12:29;7.68;;;4.70;;
56291;SDS011;54008;53.606;9.462;2022-08-21T02:14:54;7.20;;;4.57;;
56291;SDS011;54008;53.606;9.462;2022-08-21T02:17:20;6.27;;;4.57;;
56291;SDS011;54008;53.606;9.462;2022-08-21T02:19:45;5.68;;;4.38;;
56291;SDS011;54008;53.606;9.462;2022-08-21T02:22:10;8.17;;;4.33;;
56291;SDS011;54008;53.606;9.462;2022-08-21T02:24:36;7.80;;;4.53;;
56291;SDS011;54008;53.606;9.462;2022-08-21T02:27:03;7.47;;;5.10;;
56291;SDS011;54008;53.606;9.462;2022-08-21T02:29:28;7.50;;;4.43;;
56291;SDS011;54008;53.606;9.462;2022-08-21T02:31:53;9.60;;;4.40;;
56291;SDS011;54008;53.606;9.462;2022-08-21T02:34:19;10.10;;;4.90;;
56291;SDS011;54008;53.606;9.462;2022-08-21T02:36:44;9.45;;;4.65;;
56291;SDS011;54008;53.606;9.462;2022-08-21T02:39:09;11.73;;;5.50;;
56291;SDS011;54008;53.606;9.462;2022-08-21T02:41:35;7.97;;;5.35;;
56291;SDS011;54008;53.606;9.462;2022-08-21T02:44:00;8.07;;;5.30;;
56291;SDS011;54008;53.606;9.462;2022-08-21T02:46:25;10.23;;;5.33;;
56291;SDS011;54008;53.606;9.462;2022-08-21T02:48:50;11.27;;;5.57;;
56291;SDS011;54008;53.606;9.462;2022-08-21T02:51:18;13.80;;;5.03;;
56291;SDS011;54008;53.606;9.462;2022-08-21T02:53:45;8.48;;;5.68;;
56291;SDS011;54008;53.606;9.462;2022-08-21T02:56:12;9.80;;;5.40;;
56291;SDS011;54008;53.606;9.462;2022-08-21T02:58:40;10.40;;;5.95;;
56291;SDS011;54008;53.606;9.462;2022-08-21T03:01:08;9.55;;;4.95;;
56291;SDS011;54008;53.606;9.462;2022-08-21T03:03:35;9.13;;;5.60;;
56291;SDS011;54008;53.606;9.462;2022-08-21T03:06:01;7.78;;;5.47;;
56291;SDS011;54008;53.606;9.462;2022-08-21T03:08:27;14.80;;;6.20;;
56291;SDS011;54008;53.606;9.462;2022-08-21T03:10:53;8.00;;;5.27;;
56291;SDS011;54008;53.606;9.462;2022-08-21T03:13:19;8.55;;;5.57;;
56291;SDS011;54008;53.606;9.462;2022-08-21T03:15:45;9.35;;;5.65;;
56291;SDS011;54008;53.606;9.462;2022-08-21T03:18:11;8.85;;;5.53;;
56291;SDS011;54008;53.606;9.462;2022-08-21T03:20:38;9.43;;;5.50;;
56291;SDS011;54008;53.606;9.462;2022-08-21T03:23:05;9.93;;;5.78;;
56291;SDS011;54008;53.606;9.462;2022-08-21T03:25:32;8.80;;;5.43;;
56291;SDS011;54008;53.606;9.462;2022-08-21T03:27:58;11.95;;;5.60;;
56291;SDS011;54008;53.606;9.462;2022-08-21T03:30:24;11.13;;;5.90;;
56291;SDS011;54008;53.606;9.462;2022-08-21T03:32:49;8.40;;;5.80;;
56291;SDS011;54008;53.606;9.462;2022-08-21T03:35:15;9.32;;;5.38;;
56291;SDS011;54008;53.606;9.462;2022-08-21T03:37:41;8.82;;;5.70;;
56291;SDS011;54008;53.606;9.462;2022-08-21T03:40:07;9.02;;;5.38;;
56291;SDS011;54008;53.606;9.462;2022-08-21T03:42:33;12.32;;;5.90;;
56291;SDS011;54008;53.606;9.462;2022-08-21T03:44:59;10.27;;;5.88;;
56291;SDS011;54008;53.606;9.462;2022-08-21T03:47:24;9.57;;;5.18;;
56291;SDS011;54008;53.606;9.462;2022-08-21T03:49:50;8.15;;;5.50;;
56291;SDS011;54008;53.606;9.462;2022-08-21T03:52:15;12.68;;;5.55;;
56291;SDS011;54008;53.606;9.462;2022-08-21T03:54:41;13.18;;;5.47;;
56291;SDS011;54008;53.606;9.462;2022-08-21T03:57:07;9.38;;;5.43;;
56291;SDS011;54008;53.606;9.462;2022-08-21T03:59:34;12.75;;;5.53;;
56291;SDS011;54008;53.606;9.462;2022-08-21T04:02:01;8.77;;;5.20;;
56291;SDS011;54008;53.606;9.462;2022-08-21T04:04:28;10.93;;;5.05;;
56291;SDS011;54008;53.606;9.462;2022-08-21T04:06:55;10.48;;;5.18;;
56291;SDS011;54008;53.606;9.462;2022-08-21T04:09:21;11.20;;;5.00;;
56291;SDS011;54008;53.606;9.462;2022-08-21T04:11:47;14.23;;;5.57;;
56291;SDS011;54008;53.606;9.462;2022-08-21T04:14:13;10.27;;;5.57;;
56291;SDS011;54008;53.606;9.462;2022-08-21T04:16:40;9.82;;;5.25;;
56291;SDS011;54008;53.606;9.462;2022-08-21T04:19:06;7.30;;;5.32;;
56291;SDS011;54008;53.606;9.462;2022-08-21T04:21:32;6.80;;;4.90;;
56291;SDS011;54008;53.606;9.462;2022-08-21T04:24:00;8.00;;;4.32;;
56291;SDS011;54008;53.606;9.462;2022-08-21T04:26:25;11.10;;;6.13;;
56291;SDS011;54008;53.606;9.462;2022-08-21T04:28:51;8.90;;;5.38;;
56291;SDS011;54008;53.606;9.462;2022-08-21T04:31:17;7.30;;;5.10;;
56291;SDS011;54008;53.606;9.462;2022-08-21T04:33:43;8.70;;;5.57;;
56291;SDS011;54008;53.606;9.462;2022-08-21T04:36:09;6.78;;;5.15;;
56291;SDS011;54008;53.606;9.462;2022-08-21T04:38:35;13.10;;;5.55;;
56291;SDS011;54008;53.606;9.462;2022-08-21T04:41:00;7.32;;;4.93;;
56291;SDS011;54008;53.606;9.462;2022-08-21T04:43:25;9.18;;;5.13;;
56291;SDS011;54008;53.606;9.462;2022-08-21T04:45:51;8.52;;;5.50;;
56291;SDS011;54008;53.606;9.462;2022-08-21T04:48:19;9.27;;;5.45;;
56291;SDS011;54008;53.606;9.462;2022-08-21T04:50:50;10.50;;;5.10;;
56291;SDS011;54008;53.606;9.462;2022-08-21T04:53:34;9.15;;;5.22;;
56291;SDS011;54008;53.606;9.462;2022-08-21T04:56:04;9.75;;;4.90;;
56291;SDS011;54008;53.606;9.462;2022-08-21T04:58:35;6.65;;;4.68;;
56291;SDS011;54008;53.606;9.462;2022-08-21T05:01:02;7.88;;;4.65;;
56291;SDS011;54008;53.606;9.462;2022-08-21T05:03:30;10.80;;;5.05;;
56291;SDS011;54008;53.606;9.462;2022-08-21T05:05:59;8.77;;;5.22;;
56291;SDS011;54008;53.606;9.462;2022-08-21T05:08:25;8.55;;;4.38;;
56291;SDS011;54008;53.606;9.462;2022-08-21T05:10:52;9.85;;;4.45;;
56291;SDS011;54008;53.606;9.462;2022-08-21T05:13:18;8.82;;;4.65;;
56291;SDS011;54008;53.606;9.462;2022-08-21T05:15:44;6.63;;;3.95;;
56291;SDS011;54008;53.606;9.462;2022-08-21T05:18:09;8.25;;;3.85;;
56291;SDS011;54008;53.606;9.462;2022-08-21T05:20:35;9.10;;;4.35;;
56291;SDS011;54008;53.606;9.462;2022-08-21T05:23:01;9.52;;;4.45;;
56291;SDS011;54008;53.606;9.462;2022-08-21T05:25:33;5.55;;;3.42;;
56291;SDS011;54008;53.606;9.462;2022-08-21T05:27:58;9.38;;;4.35;;
56291;SDS011;54008;53.606;9.462;2022-08-21T05:30:23;4.68;;;4.00;;
56291;SDS011;54008;53.606;9.462;2022-08-21T05:32:48;5.82;;;3.95;;
56291;SDS011;54008;53.606;9.462;2022-08-21T05:35:14;9.00;;;4.05;;
56291;SDS011;54008;53.606;9.462;2022-08-21T05:37:39;4.30;;;3.60;;
56291;SDS011;54008;53.606;9.462;2022-08-21T05:40:05;8.75;;;3.75;;
56291;SDS011;54008;53.606;9.462;2022-08-21T05:42:32;9.68;;;4.30;;
56291;SDS011;54008;53.606;9.462;2022-08-21T05:44:58;8.60;;;4.07;;
56291;SDS011;54008;53.606;9.462;2022-08-21T05:47:23;6.93;;;3.50;;
56291;SDS011;54008;53.606;9.462;2022-08-21T05:49:49;7.05;;;3.92;;
56291;SDS011;54008;53.606;9.462;2022-08-21T05:52:18;6.90;;;3.43;;
56291;SDS011;54008;53.606;9.462;2022-08-21T05:54:44;6.32;;;3.53;;
56291;SDS011;54008;53.606;9.462;2022-08-21T05:57:10;5.05;;;2.97;;
56291;SDS011;54008;53.606;9.462;2022-08-21T05:59:35;6.78;;;3.60;;
56291;SDS011;54008;53.606;9.462;2022-08-21T06:02:01;5.77;;;3.40;;
56291;SDS011;54008;53.606;9.462;2022-08-21T06:04:27;6.88;;;3.28;;
56291;SDS011;54008;53.606;9.462;2022-08-21T06:06:52;7.45;;;3.38;;
56291;SDS011;54008;53.606;9.462;2022-08-21T06:09:17;7.32;;;2.90;;
56291;SDS011;54008;53.606;9.462;2022-08-21T06:11:42;6.40;;;3.60;;
56291;SDS011;54008;53.606;9.462;2022-08-21T06:14:08;7.22;;;3.53;;
56291;SDS011;54008;53.606;9.462;2022-08-21T06:16:33;8.45;;;4.03;;
56291;SDS011;54008;53.606;9.462;2022-08-21T06:18:58;4.53;;;3.33;;
56291;SDS011;54008;53.606;9.462;2022-08-21T06:21:24;7.45;;;3.80;;
56291;SDS011;54008;53.606;9.462;2022-08-21T06:23:49;8.57;;;3.33;;
56291;SDS011;54008;53.606;9.462;2022-08-21T06:26:15;7.90;;;3.30;;
56291;SDS011;54008;53.606;9.462;2022-08-21T06:28:41;8.18;;;3.03;;
56291;SDS011;54008;53.606;9.462;2022-08-21T06:31:11;10.00;;;3.63;;
56291;SDS011;54008;53.606;9.462;2022-08-21T06:33:37;8.43;;;3.15;;
56291;SDS011;54008;53.606;9.462;2022-08-21T06:36:03;5.27;;;2.87;;
56291;SDS011;54008;53.606;9.462;2022-08-21T06:38:28;10.95;;;3.08;;
56291;SDS011;54008;53.606;9.462;2022-08-21T06:40:53;7.23;;;2.87;;
56291;SDS011;54008;53.606;9.462;2022-08-21T06:43:19;7.80;;;2.80;;
56291;SDS011;54008;53.606;9.462;2022-08-21T06:45:44;9.23;;;3.22;;
56291;SDS011;54008;53.606;9.462;2022-08-21T06:48:09;5.28;;;2.72;;
56291;SDS011;54008;53.606;9.462;2022-08-21T06:50:35;7.82;;;3.17;;
56291;SDS011;54008;53.606;9.462;2022-08-21T06:53:02;5.50;;;3.30;;
56291;SDS011;54008;53.606;9.462;2022-08-21T06:55:30;10.52;;;3.10;;
56291;SDS011;54008;53.606;9.462;2022-08-21T06:57:56;5.85;;;2.72;;
56291;SDS011;54008;53.606;9.462;2022-08-21T07:00:21;6.72;;;3.70;;
56291;SDS011;54008;53.606;9.462;2022-08-21T07:02:47;8.05;;;2.90;;
56291;SDS011;54008;53.606;9.462;2022-08-21T07:05:12;6.60;;;3.50;;
56291;SDS011;54008;53.606;9.462;2022-08-21T07:07:38;5.88;;;2.92;;
56291;SDS011;54008;53.606;9.462;2022-08-21T07:10:03;5.67;;;2.77;;
56291;SDS011;54008;53.606;9.462;2022-08-21T07:12:29;6.85;;;2.88;;
56291;SDS011;54008;53.606;9.462;2022-08-21T07:14:56;8.70;;;2.80;;
56291;SDS011;54008;53.606;9.462;2022-08-21T07:17:21;9.15;;;2.92;;
56291;SDS011;54008;53.606;9.462;2022-08-21T07:19:46;6.37;;;3.17;;
56291;SDS011;54008;53.606;9.462;2022-08-21T07:22:12;6.90;;;2.50;;
56291;SDS011;54008;53.606;9.462;2022-08-21T07:24:41;9.05;;;3.22;;
56291;SDS011;54008;53.606;9.462;2022-08-21T07:27:06;5.57;;;2.33;;
56291;SDS011;54008;53.606;9.462;2022-08-21T07:29:31;4.93;;;2.33;;
56291;SDS011;54008;53.606;9.462;2022-08-21T07:31:57;10.90;;;3.20;;
56291;SDS011;54008;53.606;9.462;2022-08-21T07:34:22;8.50;;;3.08;;
56291;SDS011;54008;53.606;9.462;2022-08-21T07:36:47;6.63;;;2.67;;
56291;SDS011;54008;53.606;9.462;2022-08-21T07:39:12;5.70;;;2.38;;
56291;SDS011;54008;53.606;9.462;2022-08-21T07:41:38;6.03;;;2.45;;
56291;SDS011;54008;53.606;9.462;2022-08-21T07:44:03;7.50;;;2.80;;
56291;SDS011;54008;53.606;9.462;2022-08-21T07:46:28;5.97;;;2.70;;
56291;SDS011;54008;53.606;9.462;2022-08-21T07:48:54;5.22;;;2.58;;
56291;SDS011;54008;53.606;9.462;2022-08-21T07:51:20;6.22;;;2.92;;
56291;SDS011;54008;53.606;9.462;2022-08-21T07:53:49;6.25;;;2.30;;
56291;SDS011;54008;53.606;9.462;2022-08-21T07:56:16;7.97;;;3.60;;
56291;SDS011;54008;53.606;9.462;2022-08-21T07:58:41;5.65;;;2.25;;
56291;SDS011;54008;53.606;9.462;2022-08-21T08:01:06;7.70;;;2.50;;
56291;SDS011;54008;53.606;9.462;2022-08-21T08:03:32;13.43;;;3.30;;
56291;SDS011;54008;53.606;9.462;2022-08-21T08:05:58;7.85;;;2.70;;
56291;SDS011;54008;53.606;9.462;2022-08-21T08:08:23;9.07;;;2.50;;
56291;SDS011;54008;53.606;9.462;2022-08-21T08:10:49;7.88;;;2.28;;
56291;SDS011;54008;53.606;9.462;2022-08-21T08:13:15;5.15;;;1.98;;
56291;SDS011;54008;53.606;9.462;2022-08-21T08:15:41;7.13;;;2.40;;
56291;SDS011;54008;53.606;9.462;2022-08-21T08:18:06;8.35;;;2.72;;
56291;SDS011;54008;53.606;9.462;2022-08-21T08:20:31;8.48;;;2.33;;
56291;SDS011;54008;53.606;9.462;2022-08-21T08:22:57;12.57;;;2.53;;
56291;SDS011;54008;53.606;9.462;2022-08-21T08:25:23;5.93;;;2.38;;
56291;SDS011;54008;53.606;9.462;2022-08-21T08:27:50;8.73;;;3.47;;
56291;SDS011;54008;53.606;9.462;2022-08-21T08:30:17;9.15;;;2.33;;
56291;SDS011;54008;53.606;9.462;2022-08-21T08:32:43;8.32;;;2.55;;
56291;SDS011;54008;53.606;9.462;2022-08-21T08:35:10;7.68;;;2.65;;
56291;SDS011;54008;53.606;9.462;2022-08-21T08:37:37;7.47;;;2.63;;
56291;SDS011;54008;53.606;9.462;2022-08-21T08:40:04;9.85;;;2.83;;
56291;SDS011;54008;53.606;9.462;2022-08-21T08:42:45;10.02;;;2.75;;
56291;SDS011;54008;53.606;9.462;2022-08-21T08:45:13;7.63;;;2.53;;
56291;SDS011;54008;53.606;9.462;2022-08-21T08:47:45;10.15;;;2.67;;
56291;SDS011;54008;53.606;9.462;2022-08-21T08:50:21;5.22;;;2.15;;
56291;SDS011;54008;53.606;9.462;2022-08-21T08:53:04;10.80;;;2.83;;
56291;SDS011;54008;53.606;9.462;2022-08-21T08:55:36;6.95;;;2.15;;
56291;SDS011;54008;53.606;9.462;2022-08-21T08:58:04;9.85;;;2.50;;
56291;SDS011;54008;53.606;9.462;2022-08-21T09:00:30;8.40;;;2.95;;
56291;SDS011;54008;53.606;9.462;2022-08-21T09:02:59;9.38;;;2.78;;
56291;SDS011;54008;53.606;9.462;2022-08-21T09:05:28;9.60;;;2.92;;
56291;SDS011;54008;53.606;9.462;2022-08-21T09:11:23;11.20;;;2.50;;
56291;SDS011;54008;53.606;9.462;2022-08-21T09:14:14;9.35;;;2.70;;
56291;SDS011;54008;53.606;9.462;2022-08-21T09:16:50;8.35;;;2.53;;
56291;SDS011;54008;53.606;9.462;2022-08-21T09:22:17;9.80;;;2.65;;
56291;SDS011;54008;53.606;9.462;2022-08-21T09:24:55;8.07;;;2.38;;
56291;SDS011;54008;53.606;9.462;2022-08-21T09:27:38;7.15;;;2.13;;
56291;SDS011;54008;53.606;9.462;2022-08-21T09:30:04;7.43;;;2.35;;
56291;SDS011;54008;53.606;9.462;2022-08-21T09:32:32;5.70;;;2.38;;
56291;SDS011;54008;53.606;9.462;2022-08-21T09:37:46;7.13;;;2.10;;
56291;SDS011;54008;53.606;9.462;2022-08-21T09:40:32;7.10;;;2.40;;
56291;SDS011;54008;53.606;9.462;2022-08-21T09:43:16;7.75;;;2.03;;
56291;SDS011;54008;53.606;9.462;2022-08-21T09:45:44;5.53;;;2.13;;
56291;SDS011;54008;53.606;9.462;2022-08-21T09:48:15;5.60;;;2.53;;
56291;SDS011;54008;53.606;9.462;2022-08-21T09:50:44;4.65;;;2.00;;
56291;SDS011;54008;53.606;9.462;2022-08-21T09:53:15;7.75;;;2.55;;
56291;SDS011;54008;53.606;9.462;2022-08-21T09:55:48;5.85;;;1.92;;
56291;SDS011;54008;53.606;9.462;2022-08-21T09:58:36;6.07;;;2.05;;
56291;SDS011;54008;53.606;9.462;2022-08-21T10:01:03;5.03;;;1.63;;
56291;SDS011;54008;53.606;9.462;2022-08-21T10:03:30;7.75;;;1.52;;
56291;SDS011;54008;53.606;9.462;2022-08-21T10:05:57;4.88;;;2.13;;
56291;SDS011;54008;53.606;9.462;2022-08-21T10:08:23;6.03;;;1.67;;
56291;SDS011;54008;53.606;9.462;2022-08-21T10:10:52;5.38;;;1.85;;
56291;SDS011;54008;53.606;9.462;2022-08-21T10:13:30;4.45;;;1.75;;
56291;SDS011;54008;53.606;9.462;2022-08-21T10:19:40;4.25;;;1.90;;
56291;SDS011;54008;53.606;9.462;2022-08-21T10:24:48;6.60;;;2.03;;
56291;SDS011;54008;53.606;9.462;2022-08-21T10:30:07;4.53;;;1.73;;
56291;SDS011;54008;53.606;9.462;2022-08-21T10:32:40;2.78;;;1.40;;
56291;SDS011;54008;53.606;9.462;2022-08-21T10:40:14;4.30;;;1.67;;
56291;SDS011;54008;53.606;9.462;2022-08-21T10:45:42;4.47;;;1.60;;
56291;SDS011;54008;53.606;9.462;2022-08-21T10:48:12;5.20;;;1.35;;
56291;SDS011;54008;53.606;9.462;2022-08-21T10:50:52;3.95;;;1.10;;
56291;SDS011;54008;53.606;9.462;2022-08-21T10:56:15;3.88;;;1.40;;
56291;SDS011;54008;53.606;9.462;2022-08-21T10:58:53;5.05;;;2.28;;
56291;SDS011;54008;53.606;9.462;2022-08-21T11:01:33;5.72;;;1.52;;
56291;SDS011;54008;53.606;9.462;2022-08-21T11:04:20;5.60;;;1.38;;
56291;SDS011;54008;53.606;9.462;2022-08-21T11:06:53;4.05;;;1.58;;
56291;SDS011;54008;53.606;9.462;2022-08-21T11:09:25;6.88;;;1.40;;
56291;SDS011;54008;53.606;9.462;2022-08-21T11:12:12;4.75;;;1.30;;
56291;SDS011;54008;53.606;9.462;2022-08-21T11:18:04;2.90;;;1.60;;
56291;SDS011;54008;53.606;9.462;2022-08-21T11:23:23;3.70;;;1.50;;
56291;SDS011;54008;53.606;9.462;2022-08-21T11:25:53;2.80;;;1.27;;
56291;SDS011;54008;53.606;9.462;2022-08-21T11:31:12;3.85;;;1.50;;
56291;SDS011;54008;53.606;9.462;2022-08-21T11:39:10;4.43;;;1.07;;
56291;SDS011;54008;53.606;9.462;2022-08-21T11:42:09;3.47;;;1.20;;
56291;SDS011;54008;53.606;9.462;2022-08-21T11:45:13;2.28;;;1.30;;
56291;SDS011;54008;53.606;9.462;2022-08-21T11:47:49;2.58;;;1.20;;
56291;SDS011;54008;53.606;9.462;2022-08-21T11:50:28;4.72;;;1.30;;
56291;SDS011;54008;53.606;9.462;2022-08-21T11:52:59;6.53;;;1.90;;
56291;SDS011;54008;53.606;9.462;2022-08-21T11:55:38;4.07;;;1.27;;
56291;SDS011;54008;53.606;9.462;2022-08-21T11:58:28;2.72;;;1.17;;
56291;SDS011;54008;53.606;9.462;2022-08-21T12:01:05;4.07;;;1.20;;
56291;SDS011;54008;53.606;9.462;2022-08-21T12:03:33;3.45;;;1.40;;
56291;SDS011;54008;53.606;9.462;2022-08-21T12:06:07;3.72;;;1.10;;
56291;SDS011;54008;53.606;9.462;2022-08-21T12:08:43;2.80;;;1.38;;
56291;SDS011;54008;53.606;9.462;2022-08-21T12:13:52;2.55;;;1.15;;
56291;SDS011;54008;53.606;9.462;2022-08-21T12:16:31;2.70;;;1.05;;
56291;SDS011;54008;53.606;9.462;2022-08-21T12:19:03;2.33;;;1.20;;
56291;SDS011;54008;53.606;9.462;2022-08-21T12:21:34;4.85;;;1.20;;
56291;SDS011;54008;53.606;9.462;2022-08-21T12:26:50;2.73;;;1.30;;
56291;SDS011;54008;53.606;9.462;2022-08-21T12:31:47;2.55;;;1.42;;
56291;SDS011;54008;53.606;9.462;2022-08-21T12:34:15;2.53;;;1.02;;
56291;SDS011;54008;53.606;9.462;2022-08-21T12:36:43;7.15;;;1.25;;
56291;SDS011;54008;53.606;9.462;2022-08-21T12:39:16;4.15;;;1.25;;
56291;SDS011;54008;53.606;9.462;2022-08-21T12:41:49;4.93;;;1.40;;
56291;SDS011;54008;53.606;9.462;2022-08-21T12:44:21;3.20;;;1.00;;
56291;SDS011;54008;53.606;9.462;2022-08-21T12:49:18;3.90;;;1.03;;
56291;SDS011;54008;53.606;9.462;2022-08-21T12:54:44;3.10;;;1.20;;
56291;SDS011;54008;53.606;9.462;2022-08-21T12:57:20;4.45;;;1.15;;
56291;SDS011;54008;53.606;9.462;2022-08-21T12:59:56;2.85;;;0.90;;
56291;SDS011;54008;53.606;9.462;2022-08-21T13:02:30;3.20;;;1.38;;
56291;SDS011;54008;53.606;9.462;2022-08-21T13:04:58;1.85;;;1.00;;
56291;SDS011;54008;53.606;9.462;2022-08-21T13:07:29;4.53;;;1.65;;
56291;SDS011;54008;53.606;9.462;2022-08-21T13:10:00;3.00;;;1.05;;
56291;SDS011;54008;53.606;9.462;2022-08-21T13:12:32;3.90;;;1.20;;
56291;SDS011;54008;53.606;9.462;2022-08-21T13:15:00;3.13;;;1.20;;
56291;SDS011;54008;53.606;9.462;2022-08-21T13:17:30;4.53;;;1.48;;
56291;SDS011;54008;53.606;9.462;2022-08-21T13:19:58;4.30;;;1.33;;
56291;SDS011;54008;53.606;9.462;2022-08-21T13:22:27;3.10;;;1.00;;
56291;SDS011;54008;53.606;9.462;2022-08-21T13:24:53;2.67;;;1.00;;
56291;SDS011;54008;53.606;9.462;2022-08-21T13:27:21;3.75;;;1.13;;
56291;SDS011;54008;53.606;9.462;2022-08-21T13:29:59;4.57;;;1.40;;
56291;SDS011;54008;53.606;9.462;2022-08-21T13:32:30;5.18;;;1.15;;
56291;SDS011;54008;53.606;9.462;2022-08-21T13:34:58;6.68;;;1.50;;
56291;SDS011;54008;53.606;9.462;2022-08-21T13:37:32;4.53;;;1.08;;
56291;SDS011;54008;53.606;9.462;2022-08-21T13:39:57;2.80;;;0.98;;
56291;SDS011;54008;53.606;9.462;2022-08-21T13:42:22;5.20;;;1.20;;
56291;SDS011;54008;53.606;9.462;2022-08-21T13:44:50;4.55;;;1.52;;
56291;SDS011;54008;53.606;9.462;2022-08-21T13:47:17;4.97;;;1.05;;
56291;SDS011;54008;53.606;9.462;2022-08-21T13:49:43;3.08;;;1.15;;
56291;SDS011;54008;53.606;9.462;2022-08-21T13:52:18;2.78;;;1.00;;
56291;SDS011;54008;53.606;9.462;2022-08-21T13:54:57;3.65;;;1.25;;
56291;SDS011;54008;53.606;9.462;2022-08-21T13:57:33;4.95;;;1.27;;
56291;SDS011;54008;53.606;9.462;2022-08-21T14:02:46;5.80;;;1.50;;
56291;SDS011;54008;53.606;9.462;2022-08-21T14:05:36;2.50;;;0.80;;
56291;SDS011;54008;53.606;9.462;2022-08-21T14:08:12;2.95;;;0.98;;
56291;SDS011;54008;53.606;9.462;2022-08-21T14:10:44;4.07;;;1.00;;
56291;SDS011;54008;53.606;9.462;2022-08-21T14:13:34;2.92;;;0.90;;
56291;SDS011;54008;53.606;9.462;2022-08-21T14:16:03;3.92;;;1.55;;
56291;SDS011;54008;53.606;9.462;2022-08-21T14:18:55;3.72;;;0.82;;
56291;SDS011;54008;53.606;9.462;2022-08-21T14:21:38;4.65;;;1.30;;
56291;SDS011;54008;53.606;9.462;2022-08-21T14:24:10;3.65;;;1.10;;
56291;SDS011;54008;53.606;9.462;2022-08-21T14:26:43;2.60;;;0.85;;
56291;SDS011;54008;53.606;9.462;2022-08-21T14:29:13;2.20;;;1.00;;
56291;SDS011;54008;53.606;9.462;2022-08-21T14:31:40;2.63;;;1.50;;
56291;SDS011;54008;53.606;9.462;2022-08-21T14:34:09;2.40;;;1.00;;
56291;SDS011;54008;53.606;9.462;2022-08-21T14:36:36;3.05;;;1.10;;
56291;SDS011;54008;53.606;9.462;2022-08-21T14:39:02;2.50;;;1.20;;
56291;SDS011;54008;53.606;9.462;2022-08-21T14:41:27;5.22;;;1.67;;
56291;SDS011;54008;53.606;9.462;2022-08-21T14:43:54;4.35;;;1.40;;
56291;SDS011;54008;53.606;9.462;2022-08-21T14:46:22;5.15;;;1.50;;
56291;SDS011;54008;53.606;9.462;2022-08-21T14:48:50;1.42;;;0.95;;
56291;SDS011;54008;53.606;9.462;2022-08-21T14:51:15;6.07;;;1.27;;
56291;SDS011;54008;53.606;9.462;2022-08-21T14:53:41;4.88;;;1.27;;
56291;SDS011;54008;53.606;9.462;2022-08-21T14:56:06;3.25;;;0.95;;
56291;SDS011;54008;53.606;9.462;2022-08-21T14:58:33;3.28;;;1.10;;
56291;SDS011;54008;53.606;9.462;2022-08-21T15:01:00;4.72;;;1.55;;
56291;SDS011;54008;53.606;9.462;2022-08-21T15:03:29;3.00;;;0.93;;
56291;SDS011;54008;53.606;9.462;2022-08-21T15:05:55;2.80;;;0.90;;
56291;SDS011;54008;53.606;9.462;2022-08-21T15:08:20;2.80;;;1.10;;
56291;SDS011;54008;53.606;9.462;2022-08-21T15:10:45;1.75;;;0.80;;
56291;SDS011;54008;53.606;9.462;2022-08-21T15:13:11;5.45;;;1.27;;
56291;SDS011;54008;53.606;9.462;2022-08-21T15:15:40;5.00;;;2.13;;
56291;SDS011;54008;53.606;9.462;2022-08-21T15:18:08;2.10;;;1.10;;
56291;SDS011;54008;53.606;9.462;2022-08-21T15:20:35;4.32;;;1.38;;
56291;SDS011;54008;53.606;9.462;2022-08-21T15:23:01;4.20;;;1.10;;
56291;SDS011;54008;53.606;9.462;2022-08-21T15:25:27;3.83;;;1.10;;
56291;SDS011;54008;53.606;9.462;2022-08-21T15:27:53;1.98;;;1.10;;
56291;SDS011;54008;53.606;9.462;2022-08-21T15:30:18;6.70;;;1.92;;
56291;SDS011;54008;53.606;9.462;2022-08-21T15:32:44;2.28;;;1.30;;
56291;SDS011;54008;53.606;9.462;2022-08-21T15:35:09;2.38;;;1.00;;
56291;SDS011;54008;53.606;9.462;2022-08-21T15:37:35;7.68;;;1.63;;
56291;SDS011;54008;53.606;9.462;2022-08-21T15:40:00;3.97;;;1.25;;
56291;SDS011;54008;53.606;9.462;2022-08-21T15:42:26;3.08;;;1.35;;
56291;SDS011;54008;53.606;9.462;2022-08-21T15:44:52;2.33;;;1.15;;
56291;SDS011;54008;53.606;9.462;2022-08-21T15:47:19;5.00;;;1.75;;
56291;SDS011;54008;53.606;9.462;2022-08-21T15:49:47;2.28;;;1.20;;
56291;SDS011;54008;53.606;9.462;2022-08-21T15:52:17;4.30;;;1.38;;
56291;SDS011;54008;53.606;9.462;2022-08-21T15:54:44;3.97;;;1.50;;
56291;SDS011;54008;53.606;9.462;2022-08-21T15:57:10;3.55;;;1.35;;